sensor_id;sensor_type;location;lat;lon;timestamp;pressure;altitude;pressure_sealevel;temperature;humidity
2000;BME280;1001;48.87406500;9.59633600;2023-03-14T00:01:38;93532.56;;;8.73;100.00
2000;BME280;1001;48.87406500;9.59633600;2023-03-14T00:04:05;93529.44;;;8.71;100.00
2000;BME280;1001;48.87406500;9.59633600;2023-03-14T00:06:32;93530.47;;;8.75;100.00
2000;BME280;1001;48.87406500;9.59633600;2023-03-14T00:09:00;93543.53;;;8.70;100.00
2000;BME280;1001;48.87406500;9.59633600;2023-03-14T00:11:26;93568.84;;;8.85;100.00
2000;BME280;1001;48.87406500;9.59633600;2023-03-14T00:13:56;93570.69;;;8.95;100.00
2000;BME280;1001;48.87406500;9.59633600;2023-03-14T00:16:22;93552.47;;;9.00;100.00
2000;BME280;1001;48.87406500;9.59633600;2023-03-14T00:18:49;93522.75;;;8.96;100.00
2000;BME280;1001;48.87406500;9.59633600;2023-03-14T00:21:16;93530.56;;;8.96;100.00
2000;BME280;1001;48.87406500;9.59633600;2023-03-14T00:23:43;93517.03;;;8.99;100.00
2000;BME280;1001;48.87406500;9.59633600;2023-03-14T00:26:12;93537.63;;;9.00;100.00
2000;BME280;1001;48.87406500;9.59633600;2023-03-14T00:28:39;93538.41;;;9.01;100.00
2000;BME280;1001;48.87406500;9.59633600;2023-03-14T00:31:08;93517.81;;;9.04;100.00
2000;BME280;1001;48.87406500;9.59633600;2023-03-14T00:33:35;93521.72;;;9.07;100.00
2000;BME280;1001;48.87406500;9.59633600;2023-03-14T00:36:04;93508.94;;;9.05;100.00
2000;BME280;1001;48.87406500;9.59633600;2023-03-14T00:38:32;93507.16;;;9.11;100.00
2000;BME280;1001;48.87406500;9.59633600;2023-03-14T00:40:59;93497.50;;;9.06;100.00
2000;BME280;1001;48.87406500;9.59633600;2023-03-14T00:43:27;93481.06;;;9.06;100.00
2000;BME280;1001;48.87406500;9.59633600;2023-03-14T00:45:53;93471.13;;;9.03;100.00
2000;BME280;1001;48.87406500;9.59633600;2023-03-14T00:48:20;93464.63;;;9.00;100.00
2000;BME280;1001;48.87406500;9.59633600;2023-03-14T00:50:47;93469.81;;;8.95;100.00
2000;BME280;1001;48.87406500;9.59633600;2023-03-14T00:53:13;93477.41;;;9.12;100.00
2000;BME280;1001;48.87406500;9.59633600;2023-03-14T00:55:42;93480.53;;;9.09;100.00
2000;BME280;1001;48.87406500;9.59633600;2023-03-14T00:58:10;93493.84;;;9.12;100.00
2000;BME280;1001;48.87406500;9.59633600;2023-03-14T01:00:38;93496.97;;;9.19;100.00
2000;BME280;1001;48.87406500;9.59633600;2023-03-14T01:03:05;93481.59;;;9.23;100.00
2000;BME280;1001;48.87406500;9.59633600;2023-03-14T01:05:32;93486.28;;;9.21;100.00
2000;BME280;1001;48.87406500;9.59633600;2023-03-14T01:07:59;93488.13;;;9.20;100.00
2000;BME280;1001;48.87406500;9.59633600;2023-03-14T01:10:26;93496.72;;;9.21;100.00
2000;BME280;1001;48.87406500;9.59633600;2023-03-14T01:12:53;93499.31;;;9.21;100.00
2000;BME280;1001;48.87406500;9.59633600;2023-03-14T01:15:20;93501.94;;;9.21;100.00
2000;BME280;1001;48.87406500;9.59633600;2023-03-14T01:17:48;93492.53;;;9.15;100.00
2000;BME280;1001;48.87406500;9.59633600;2023-03-14T01:20:15;93494.09;;;9.21;100.00
2000;BME280;1001;48.87406500;9.59633600;2023-03-14T01:22:43;93492.28;;;9.21;100.00
2000;BME280;1001;48.87406500;9.59633600;2023-03-14T01:25:12;93490.47;;;9.22;100.00
2000;BME280;1001;48.87406500;9.59633600;2023-03-14T01:27:39;93492.03;;;9.28;100.00
2000;BME280;1001;48.87406500;9.59633600;2023-03-14T01:30:07;93496.22;;;9.29;100.00
2000;BME280;1001;48.87406500;9.59633600;2023-03-14T01:32:34;93485.00;;;9.33;100.00
2000;BME280;1001;48.87406500;9.59633600;2023-03-14T01:35:02;93485.25;;;9.27;100.00
2000;BME280;1001;48.87406500;9.59633600;2023-03-14T01:37:29;93473.53;;;9.24;100.00
2000;BME280;1001;48.87406500;9.59633600;2023-03-14T01:39:55;93461.78;;;9.27;100.00
2000;BME280;1001;48.87406500;9.59633600;2023-03-14T01:42:22;93456.53;;;9.12;100.00
2000;BME280;1001;48.87406500;9.59633600;2023-03-14T01:44:51;93436.75;;;9.11;100.00
2000;BME280;1001;48.87406500;9.59633600;2023-03-14T01:47:17;93442.19;;;9.09;100.00
2000;BME280;1001;48.87406500;9.59633600;2023-03-14T01:49:45;93445.63;;;9.20;100.00
2000;BME280;1001;48.87406500;9.59633600;2023-03-14T01:52:16;93445.59;;;9.15;100.00
2000;BME280;1001;48.87406500;9.59633600;2023-03-14T01:54:47;93431.00;;;9.19;100.00
2000;BME280;1001;48.87406500;9.59633600;2023-03-14T01:57:19;93417.19;;;9.13;100.00
2000;BME280;1001;48.87406500;9.59633600;2023-03-14T01:59:52;93407.78;;;9.07;100.00
2000;BME280;1001;48.87406500;9.59633600;2023-03-14T02:02:21;93399.97;;;9.07;100.00
2000;BME280;1001;48.87406500;9.59633600;2023-03-14T02:04:50;93391.34;;;9.02;100.00
2000;BME280;1001;48.87406500;9.59633600;2023-03-14T02:07:20;93385.63;;;8.95;100.00
2000;BME280;1001;48.87406500;9.59633600;2023-03-14T02:09:49;93389.81;;;8.96;100.00
2000;BME280;1001;48.87406500;9.59633600;2023-03-14T02:12:17;93392.94;;;8.98;100.00
2000;BME280;1001;48.87406500;9.59633600;2023-03-14T02:14:44;93402.84;;;8.96;100.00
2000;BME280;1001;48.87406500;9.59633600;2023-03-14T02:17:14;93397.63;;;8.90;100.00
2000;BME280;1001;48.87406500;9.59633600;2023-03-14T02:19:55;93396.59;;;8.92;100.00
2000;BME280;1001;48.87406500;9.59633600;2023-03-14T02:22:25;93384.06;;;8.88;100.00
2000;BME280;1001;48.87406500;9.59633600;2023-03-14T02:24:59;93395.00;;;8.90;100.00
2000;BME280;1001;48.87406500;9.59633600;2023-03-14T02:27:30;93394.22;;;8.85;100.00
2000;BME280;1001;48.87406500;9.59633600;2023-03-14T02:29:58;93378.31;;;8.81;100.00
2000;BME280;1001;48.87406500;9.59633600;2023-03-14T02:32:27;93378.31;;;8.81;100.00
2000;BME280;1001;48.87406500;9.59633600;2023-03-14T02:34:58;93379.63;;;8.79;100.00
2000;BME280;1001;48.87406500;9.59633600;2023-03-14T02:37:28;93376.75;;;8.75;100.00
2000;BME280;1001;48.87406500;9.59633600;2023-03-14T02:39:57;93365.56;;;8.80;100.00
2000;BME280;1001;48.87406500;9.59633600;2023-03-14T02:42:24;93370.25;;;8.83;100.00
2000;BME280;1001;48.87406500;9.59633600;2023-03-14T02:45:01;93353.84;;;8.77;100.00
2000;BME280;1001;48.87406500;9.59633600;2023-03-14T02:47:43;93344.16;;;8.78;100.00
2000;BME280;1001;48.87406500;9.59633600;2023-03-14T02:50:19;93353.31;;;8.85;100.00
2000;BME280;1001;48.87406500;9.59633600;2023-03-14T02:52:46;93350.69;;;8.90;100.00
2000;BME280;1001;48.87406500;9.59633600;2023-03-14T02:55:13;93356.19;;;8.89;100.00
2000;BME280;1001;48.87406500;9.59633600;2023-03-14T02:57:40;93360.31;;;8.85;100.00
2000;BME280;1001;48.87406500;9.59633600;2023-03-14T03:00:09;93351.47;;;8.86;100.00
2000;BME280;1001;48.87406500;9.59633600;2023-03-14T03:02:36;93354.88;;;8.86;100.00
2000;BME280;1001;48.87406500;9.59633600;2023-03-14T03:05:04;93347.56;;;8.83;100.00
2000;BME280;1001;48.87406500;9.59633600;2023-03-14T03:07:30;93335.06;;;8.90;100.00
2000;BME280;1001;48.87406500;9.59633600;2023-03-14T03:09:57;93343.16;;;8.89;100.00
2000;BME280;1001;48.87406500;9.59633600;2023-03-14T03:12:24;93347.59;;;8.94;100.00
2000;BME280;1001;48.87406500;9.59633600;2023-03-14T03:14:50;93341.31;;;8.95;100.00
2000;BME280;1001;48.87406500;9.59633600;2023-03-14T03:17:18;93328.81;;;8.92;100.00
2000;BME280;1001;48.87406500;9.59633600;2023-03-14T03:19:45;93328.53;;;8.93;100.00
2000;BME280;1001;48.87406500;9.59633600;2023-03-14T03:22:11;93352.28;;;8.97;100.00
2000;BME280;1001;48.87406500;9.59633600;2023-03-14T03:24:38;93332.97;;;8.93;100.00
2000;BME280;1001;48.87406500;9.59633600;2023-03-14T03:27:05;93334.78;;;8.92;100.00
2000;BME280;1001;48.87406500;9.59633600;2023-03-14T03:29:31;93320.72;;;8.83;100.00
2000;BME280;1001;48.87406500;9.59633600;2023-03-14T03:31:58;93323.88;;;8.80;100.00
2000;BME280;1001;48.87406500;9.59633600;2023-03-14T03:34:27;93318.38;;;8.81;100.00
2000;BME280;1001;48.87406500;9.59633600;2023-03-14T03:36:57;93317.88;;;8.79;100.00
2000;BME280;1001;48.87406500;9.59633600;2023-03-14T03:39:24;93319.69;;;8.74;100.00
2000;BME280;1001;48.87406500;9.59633600;2023-03-14T03:41:51;93310.03;;;8.69;100.00
2000;BME280;1001;48.87406500;9.59633600;2023-03-14T03:44:18;93315.78;;;8.71;100.00
2000;BME280;1001;48.87406500;9.59633600;2023-03-14T03:46:44;93304.31;;;8.67;100.00
2000;BME280;1001;48.87406500;9.59633600;2023-03-14T03:49:11;93309.25;;;8.69;100.00
2000;BME280;1001;48.87406500;9.59633600;2023-03-14T03:51:39;93293.09;;;8.62;100.00
2000;BME280;1001;48.87406500;9.59633600;2023-03-14T03:54:06;93310.84;;;8.75;100.00
2000;BME280;1001;48.87406500;9.59633600;2023-03-14T03:56:33;93302.50;;;8.63;100.00
2000;BME280;1001;48.87406500;9.59633600;2023-03-14T03:58:59;93301.97;;;8.61;100.00
2000;BME280;1001;48.87406500;9.59633600;2023-03-14T04:01:26;93307.44;;;8.64;100.00
2000;BME280;1001;48.87406500;9.59633600;2023-03-14T04:03:53;93304.59;;;8.66;100.00
2000;BME280;1001;48.87406500;9.59633600;2023-03-14T04:06:19;93298.59;;;8.60;100.00
2000;BME280;1001;48.87406500;9.59633600;2023-03-14T04:08:48;93299.88;;;8.53;100.00
2000;BME280;1001;48.87406500;9.59633600;2023-03-14T04:11:14;93292.56;;;8.50;100.00
2000;BME280;1001;48.87406500;9.59633600;2023-03-14T04:13:41;93296.47;;;8.47;100.00
2000;BME280;1001;48.87406500;9.59633600;2023-03-14T04:16:13;93292.84;;;8.43;100.00
2000;BME280;1001;48.87406500;9.59633600;2023-03-14T04:18:41;93289.19;;;8.39;100.00
2000;BME280;1001;48.87406500;9.59633600;2023-03-14T04:21:07;93291.81;;;8.39;100.00
2000;BME280;1001;48.87406500;9.59633600;2023-03-14T04:23:34;93294.13;;;8.41;100.00
2000;BME280;1001;48.87406500;9.59633600;2023-03-14T04:26:02;93298.31;;;8.37;100.00
2000;BME280;1001;48.87406500;9.59633600;2023-03-14T04:28:29;93301.94;;;8.36;100.00
2000;BME280;1001;48.87406500;9.59633600;2023-03-14T04:30:55;93301.69;;;8.37;100.00
2000;BME280;1001;48.87406500;9.59633600;2023-03-14T04:33:22;93300.41;;;8.40;100.00
2000;BME280;1001;48.87406500;9.59633600;2023-03-14T04:35:49;93290.22;;;8.38;100.00
2000;BME280;1001;48.87406500;9.59633600;2023-03-14T04:38:19;93303.75;;;8.40;100.00
2000;BME280;1001;48.87406500;9.59633600;2023-03-14T04:40:46;93295.69;;;8.37;100.00
2000;BME280;1001;48.87406500;9.59633600;2023-03-14T04:43:14;93303.78;;;8.35;100.00
2000;BME280;1001;48.87406500;9.59633600;2023-03-14T04:45:41;93305.31;;;8.31;100.00
2000;BME280;1001;48.87406500;9.59633600;2023-03-14T04:48:08;93298.81;;;8.34;100.00
2000;BME280;1001;48.87406500;9.59633600;2023-03-14T04:50:35;93300.38;;;8.30;100.00
2000;BME280;1001;48.87406500;9.59633600;2023-03-14T04:53:01;93288.66;;;8.27;100.00
2000;BME280;1001;48.87406500;9.59633600;2023-03-14T04:55:28;93288.63;;;8.22;100.00
2000;BME280;1001;48.87406500;9.59633600;2023-03-14T04:57:54;93281.63;;;8.28;100.00
2000;BME280;1001;48.87406500;9.59633600;2023-03-14T05:00:22;93286.53;;;8.24;100.00
2000;BME280;1001;48.87406500;9.59633600;2023-03-14T05:02:49;93276.94;;;8.30;100.00
2000;BME280;1001;48.87406500;9.59633600;2023-03-14T05:05:16;93273.28;;;8.31;100.00
2000;BME280;1001;48.87406500;9.59633600;2023-03-14T05:07:43;93276.16;;;8.29;100.00
2000;BME280;1001;48.87406500;9.59633600;2023-03-14T05:10:10;93262.84;;;8.26;100.00
2000;BME280;1001;48.87406500;9.59633600;2023-03-14T05:12:37;93246.44;;;8.20;100.00
2000;BME280;1001;48.87406500;9.59633600;2023-03-14T05:15:04;93252.94;;;8.22;100.00
2000;BME280;1001;48.87406500;9.59633600;2023-03-14T05:17:33;93264.16;;;8.23;100.00
2000;BME280;1001;48.87406500;9.59633600;2023-03-14T05:20:00;93245.41;;;8.16;100.00
2000;BME280;1001;48.87406500;9.59633600;2023-03-14T05:22:29;93241.75;;;8.22;100.00
2000;BME280;1001;48.87406500;9.59633600;2023-03-14T05:24:58;93239.66;;;8.19;100.00
2000;BME280;1001;48.87406500;9.59633600;2023-03-14T05:27:25;93252.16;;;8.22;100.00
2000;BME280;1001;48.87406500;9.59633600;2023-03-14T05:29:52;93234.22;;;8.20;100.00
2000;BME280;1001;48.87406500;9.59633600;2023-03-14T05:32:18;93227.41;;;8.14;100.00
2000;BME280;1001;48.87406500;9.59633600;2023-03-14T05:34:46;93222.22;;;8.14;100.00
2000;BME280;1001;48.87406500;9.59633600;2023-03-14T05:37:13;93219.09;;;8.12;100.00
2000;BME280;1001;48.87406500;9.59633600;2023-03-14T05:39:39;93211.03;;;8.09;100.00
2000;BME280;1001;48.87406500;9.59633600;2023-03-14T05:42:06;93207.13;;;8.16;100.00
2000;BME280;1001;48.87406500;9.59633600;2023-03-14T05:44:33;93211.03;;;8.19;100.00
2000;BME280;1001;48.87406500;9.59633600;2023-03-14T05:46:59;93199.56;;;8.15;100.00
2000;BME280;1001;48.87406500;9.59633600;2023-03-14T05:49:26;93205.56;;;8.15;100.00
2000;BME280;1001;48.87406500;9.59633600;2023-03-14T05:51:54;93208.41;;;8.19;100.00
2000;BME280;1001;48.87406500;9.59633600;2023-03-14T05:54:20;93196.47;;;8.18;100.00
2000;BME280;1001;48.87406500;9.59633600;2023-03-14T05:56:47;93193.06;;;8.17;100.00
2000;BME280;1001;48.87406500;9.59633600;2023-03-14T05:59:14;93200.59;;;8.19;100.00
2000;BME280;1001;48.87406500;9.59633600;2023-03-14T06:01:40;93187.88;;;8.22;100.00
2000;BME280;1001;48.87406500;9.59633600;2023-03-14T06:04:07;93192.81;;;8.24;100.00
2000;BME280;1001;48.87406500;9.59633600;2023-03-14T06:06:34;93198.28;;;8.22;100.00
2000;BME280;1001;48.87406500;9.59633600;2023-03-14T06:09:02;93191.53;;;8.32;100.00
2000;BME280;1001;48.87406500;9.59633600;2023-03-14T06:11:29;93193.63;;;8.40;100.00
2000;BME280;1001;48.87406500;9.59633600;2023-03-14T06:13:55;93181.63;;;8.44;100.00
2000;BME280;1001;48.87406500;9.59633600;2023-03-14T06:16:22;93198.06;;;8.44;100.00
2000;BME280;1001;48.87406500;9.59633600;2023-03-14T06:18:49;93181.38;;;8.45;100.00
2000;BME280;1001;48.87406500;9.59633600;2023-03-14T06:21:16;93183.19;;;8.50;100.00
2000;BME280;1001;48.87406500;9.59633600;2023-03-14T06:23:43;93198.53;;;8.66;100.00
2000;BME280;1001;48.87406500;9.59633600;2023-03-14T06:26:11;93192.56;;;8.61;100.00
2000;BME280;1001;48.87406500;9.59633600;2023-03-14T06:28:38;93190.47;;;8.63;100.00
2000;BME280;1001;48.87406500;9.59633600;2023-03-14T06:31:05;93199.59;;;8.55;100.00
2000;BME280;1001;48.87406500;9.59633600;2023-03-14T06:33:32;93197.00;;;8.45;100.00
2000;BME280;1001;48.87406500;9.59633600;2023-03-14T06:35:58;93197.00;;;8.40;100.00
2000;BME280;1001;48.87406500;9.59633600;2023-03-14T06:38:25;93192.31;;;8.42;100.00
2000;BME280;1001;48.87406500;9.59633600;2023-03-14T06:40:52;93181.13;;;8.32;100.00
2000;BME280;1001;48.87406500;9.59633600;2023-03-14T06:43:20;93194.13;;;8.27;100.00
2000;BME280;1001;48.87406500;9.59633600;2023-03-14T06:45:46;93186.84;;;8.34;100.00
2000;BME280;1001;48.87406500;9.59633600;2023-03-14T06:48:13;93187.63;;;8.29;100.00
2000;BME280;1001;48.87406500;9.59633600;2023-03-14T06:50:40;93183.72;;;8.32;100.00
2000;BME280;1001;48.87406500;9.59633600;2023-03-14T06:53:06;93196.47;;;8.33;100.00
2000;BME280;1001;48.87406500;9.59633600;2023-03-14T06:55:33;93186.84;;;8.34;100.00
2000;BME280;1001;48.87406500;9.59633600;2023-03-14T06:57:59;93188.16;;;8.31;100.00
2000;BME280;1001;48.87406500;9.59633600;2023-03-14T07:00:28;93193.88;;;8.38;100.00
2000;BME280;1001;48.87406500;9.59633600;2023-03-14T07:02:54;93198.53;;;8.66;99.90
2000;BME280;1001;48.87406500;9.59633600;2023-03-14T07:05:21;93206.34;;;8.76;99.17
2000;BME280;1001;48.87406500;9.59633600;2023-03-14T07:07:48;93201.13;;;8.76;98.15
2000;BME280;1001;48.87406500;9.59633600;2023-03-14T07:10:14;93206.84;;;8.78;98.13
2000;BME280;1001;48.87406500;9.59633600;2023-03-14T07:12:41;93195.91;;;8.66;97.84
2000;BME280;1001;48.87406500;9.59633600;2023-03-14T07:15:09;93196.69;;;8.82;98.57
2000;BME280;1001;48.87406500;9.59633600;2023-03-14T07:17:37;93208.13;;;8.91;97.46
2000;BME280;1001;48.87406500;9.59633600;2023-03-14T07:20:04;93206.31;;;8.97;97.36
2000;BME280;1001;48.87406500;9.59633600;2023-03-14T07:22:34;93190.38;;;9.08;96.69
2000;BME280;1001;48.87406500;9.59633600;2023-03-14T07:25:02;93201.84;;;9.07;96.50
2000;BME280;1001;48.87406500;9.59633600;2023-03-14T07:27:29;93201.03;;;9.12;96.07
2000;BME280;1001;48.87406500;9.59633600;2023-03-14T07:29:55;93177.06;;;9.05;96.82
2000;BME280;1001;48.87406500;9.59633600;2023-03-14T07:32:22;93203.63;;;9.22;97.32
2000;BME280;1001;48.87406500;9.59633600;2023-03-14T07:34:50;93207.22;;;9.36;96.36
2000;BME280;1001;48.87406500;9.59633600;2023-03-14T07:37:16;93201.41;;;9.49;95.60
2000;BME280;1001;48.87406500;9.59633600;2023-03-14T07:39:43;93203.41;;;9.72;95.39
2000;BME280;1001;48.87406500;9.59633600;2023-03-14T07:42:10;93203.41;;;10.11;94.92
2000;BME280;1001;48.87406500;9.59633600;2023-03-14T07:44:39;93198.69;;;10.18;92.76
2000;BME280;1001;48.87406500;9.59633600;2023-03-14T07:47:05;93215.94;;;10.19;92.89
2000;BME280;1001;48.87406500;9.59633600;2023-03-14T07:49:32;93205.09;;;10.36;93.11
2000;BME280;1001;48.87406500;9.59633600;2023-03-14T07:52:00;93206.47;;;10.23;92.26
2000;BME280;1001;48.87406500;9.59633600;2023-03-14T07:54:27;93216.38;;;10.31;93.46
2000;BME280;1001;48.87406500;9.59633600;2023-03-14T07:56:54;93211.28;;;10.45;93.64
2000;BME280;1001;48.87406500;9.59633600;2023-03-14T07:59:20;93210.72;;;10.53;92.57
2000;BME280;1001;48.87406500;9.59633600;2023-03-14T08:01:47;93195.78;;;10.53;92.14
2000;BME280;1001;48.87406500;9.59633600;2023-03-14T08:04:14;93193.03;;;10.40;90.54
2000;BME280;1001;48.87406500;9.59633600;2023-03-14T08:06:40;93188.28;;;10.47;91.14
2000;BME280;1001;48.87406500;9.59633600;2023-03-14T08:09:08;93192.56;;;10.66;92.12
2000;BME280;1001;48.87406500;9.59633600;2023-03-14T08:11:35;93177.06;;;10.41;90.20
2000;BME280;1001;48.87406500;9.59633600;2023-03-14T08:14:02;93187.00;;;10.44;91.45
2000;BME280;1001;48.87406500;9.59633600;2023-03-14T08:16:29;93184.78;;;10.56;91.11
2000;BME280;1001;48.87406500;9.59633600;2023-03-14T08:18:56;93186.16;;;10.49;89.60
2000;BME280;1001;48.87406500;9.59633600;2023-03-14T08:21:23;93178.13;;;10.74;90.11
2000;BME280;1001;48.87406500;9.59633600;2023-03-14T08:23:49;93187.81;;;10.68;88.80
2000;BME280;1001;48.87406500;9.59633600;2023-03-14T08:26:17;93187.66;;;10.60;87.84
2000;BME280;1001;48.87406500;9.59633600;2023-03-14T08:28:44;93180.84;;;10.59;88.25
2000;BME280;1001;48.87406500;9.59633600;2023-03-14T08:31:11;93186.38;;;10.86;89.54
2000;BME280;1001;48.87406500;9.59633600;2023-03-14T08:33:37;93180.03;;;11.16;88.10
2000;BME280;1001;48.87406500;9.59633600;2023-03-14T08:36:04;93181.84;;;11.15;87.02
2000;BME280;1001;48.87406500;9.59633600;2023-03-14T08:38:31;93192.94;;;11.31;87.55
2000;BME280;1001;48.87406500;9.59633600;2023-03-14T08:40:58;93209.53;;;11.21;86.34
2000;BME280;1001;48.87406500;9.59633600;2023-03-14T08:43:26;93192.59;;;11.14;86.44
2000;BME280;1001;48.87406500;9.59633600;2023-03-14T08:45:57;93198.44;;;11.06;86.04
2000;BME280;1001;48.87406500;9.59633600;2023-03-14T08:48:24;93187.56;;;11.17;86.04
2000;BME280;1001;48.87406500;9.59633600;2023-03-14T08:50:50;93194.94;;;11.15;84.66
2000;BME280;1001;48.87406500;9.59633600;2023-03-14T08:53:17;93209.75;;;11.25;86.34
2000;BME280;1001;48.87406500;9.59633600;2023-03-14T08:55:46;93210.03;;;11.47;84.37
2000;BME280;1001;48.87406500;9.59633600;2023-03-14T08:58:12;93204.56;;;11.43;82.81
2000;BME280;1001;48.87406500;9.59633600;2023-03-14T09:00:40;93202.56;;;11.35;83.43
2000;BME280;1001;48.87406500;9.59633600;2023-03-14T09:03:07;93220.59;;;11.37;83.31
2000;BME280;1001;48.87406500;9.59633600;2023-03-14T09:05:34;93209.97;;;11.28;83.74
2000;BME280;1001;48.87406500;9.59633600;2023-03-14T09:08:01;93200.84;;;11.26;83.80
2000;BME280;1001;48.87406500;9.59633600;2023-03-14T09:10:28;93194.78;;;11.30;82.46
2000;BME280;1001;48.87406500;9.59633600;2023-03-14T09:12:54;93210.66;;;11.57;81.66
2000;BME280;1001;48.87406500;9.59633600;2023-03-14T09:15:22;93205.84;;;11.46;81.82
2000;BME280;1001;48.87406500;9.59633600;2023-03-14T09:17:50;93203.16;;;11.27;81.77
2000;BME280;1001;48.87406500;9.59633600;2023-03-14T09:20:17;93203.31;;;11.12;81.32
2000;BME280;1001;48.87406500;9.59633600;2023-03-14T09:22:44;93227.91;;;11.16;83.05
2000;BME280;1001;48.87406500;9.59633600;2023-03-14T09:25:10;93226.50;;;11.24;81.99
2000;BME280;1001;48.87406500;9.59633600;2023-03-14T09:27:37;93217.03;;;11.04;80.82
2000;BME280;1001;48.87406500;9.59633600;2023-03-14T09:30:04;93224.31;;;11.07;80.87
2000;BME280;1001;48.87406500;9.59633600;2023-03-14T09:32:31;93229.09;;;11.00;80.29
2000;BME280;1001;48.87406500;9.59633600;2023-03-14T09:35:00;93227.91;;;10.87;79.46
2000;BME280;1001;48.87406500;9.59633600;2023-03-14T09:37:26;93231.31;;;10.88;80.98
2000;BME280;1001;48.87406500;9.59633600;2023-03-14T09:39:53;93244.84;;;10.95;81.51
2000;BME280;1001;48.87406500;9.59633600;2023-03-14T09:42:22;93259.31;;;11.11;82.15
2000;BME280;1001;48.87406500;9.59633600;2023-03-14T09:44:53;93254.38;;;11.10;82.89
2000;BME280;1001;48.87406500;9.59633600;2023-03-14T09:47:22;93247.41;;;11.00;81.91
2000;BME280;1001;48.87406500;9.59633600;2023-03-14T09:49:49;93253.03;;;11.12;82.83
2000;BME280;1001;48.87406500;9.59633600;2023-03-14T09:52:21;93257.91;;;10.95;82.65
2000;BME280;1001;48.87406500;9.59633600;2023-03-14T09:54:50;93262.56;;;10.98;82.50
2000;BME280;1001;48.87406500;9.59633600;2023-03-14T09:57:19;93258.78;;;11.14;81.98
2000;BME280;1001;48.87406500;9.59633600;2023-03-14T09:59:49;93251.47;;;11.11;83.34
2000;BME280;1001;48.87406500;9.59633600;2023-03-14T10:02:19;93256.00;;;11.29;82.30
2000;BME280;1001;48.87406500;9.59633600;2023-03-14T10:04:46;93236.34;;;11.32;81.40
2000;BME280;1001;48.87406500;9.59633600;2023-03-14T10:07:15;93256.41;;;11.41;82.31
2000;BME280;1001;48.87406500;9.59633600;2023-03-14T10:09:45;93231.00;;;11.42;80.27
2000;BME280;1001;48.87406500;9.59633600;2023-03-14T10:12:12;93245.03;;;11.75;81.12
2000;BME280;1001;48.87406500;9.59633600;2023-03-14T10:14:46;93224.19;;;11.64;80.74
2000;BME280;1001;48.87406500;9.59633600;2023-03-14T10:17:13;93246.53;;;11.57;80.27
2000;BME280;1001;48.87406500;9.59633600;2023-03-14T10:19:51;93214.28;;;11.61;79.05
2000;BME280;1001;48.87406500;9.59633600;2023-03-14T10:22:19;93241.88;;;11.54;78.83
2000;BME280;1001;48.87406500;9.59633600;2023-03-14T10:24:51;93240.38;;;11.72;77.89
2000;BME280;1001;48.87406500;9.59633600;2023-03-14T10:27:20;93231.75;;;11.71;78.93
2000;BME280;1001;48.87406500;9.59633600;2023-03-14T10:29:52;93245.41;;;11.87;79.21
2000;BME280;1001;48.87406500;9.59633600;2023-03-14T10:32:21;93220.44;;;11.76;77.93
2000;BME280;1001;48.87406500;9.59633600;2023-03-14T10:35:07;93251.88;;;12.32;78.27
2000;BME280;1001;48.87406500;9.59633600;2023-03-14T10:37:35;93235.19;;;12.09;75.21
2000;BME280;1001;48.87406500;9.59633600;2023-03-14T10:40:04;93242.38;;;12.17;76.82
2000;BME280;1001;48.87406500;9.59633600;2023-03-14T10:42:33;93248.84;;;12.06;76.47
2000;BME280;1001;48.87406500;9.59633600;2023-03-14T10:45:02;93242.31;;;12.03;77.74
2000;BME280;1001;48.87406500;9.59633600;2023-03-14T10:47:32;93254.56;;;12.45;77.63
2000;BME280;1001;48.87406500;9.59633600;2023-03-14T10:50:22;93247.25;;;12.93;75.47
2000;BME280;1001;48.87406500;9.59633600;2023-03-14T10:52:49;93240.44;;;12.92;76.04
2000;BME280;1001;48.87406500;9.59633600;2023-03-14T10:55:17;93224.81;;;12.36;74.61
2000;BME280;1001;48.87406500;9.59633600;2023-03-14T10:57:44;93250.25;;;12.17;76.22
2000;BME280;1001;48.87406500;9.59633600;2023-03-14T11:00:17;93226.81;;;11.64;76.45
2000;BME280;1001;48.87406500;9.59633600;2023-03-14T11:02:58;93216.19;;;11.32;78.97
2000;BME280;1001;48.87406500;9.59633600;2023-03-14T11:05:32;93245.19;;;11.12;82.58
2000;BME280;1001;48.87406500;9.59633600;2023-03-14T11:08:02;93243.97;;;11.05;84.47
2000;BME280;1001;48.87406500;9.59633600;2023-03-14T11:10:34;93250.03;;;11.00;85.85
2000;BME280;1001;48.87406500;9.59633600;2023-03-14T11:13:17;93247.25;;;10.86;86.91
2000;BME280;1001;48.87406500;9.59633600;2023-03-14T11:15:58;93236.91;;;10.76;86.79
2000;BME280;1001;48.87406500;9.59633600;2023-03-14T11:18:51;93253.69;;;10.70;86.24
2000;BME280;1001;48.87406500;9.59633600;2023-03-14T11:21:29;93224.13;;;10.70;85.59
2000;BME280;1001;48.87406500;9.59633600;2023-03-14T11:24:17;93243.09;;;10.85;85.70
2000;BME280;1001;48.87406500;9.59633600;2023-03-14T11:26:55;93251.25;;;10.79;84.75
2000;BME280;1001;48.87406500;9.59633600;2023-03-14T11:29:32;93257.34;;;10.69;85.29
2000;BME280;1001;48.87406500;9.59633600;2023-03-14T11:32:12;93243.19;;;10.75;85.86
2000;BME280;1001;48.87406500;9.59633600;2023-03-14T11:34:43;93256.41;;;10.55;85.39
2000;BME280;1001;48.87406500;9.59633600;2023-03-14T11:37:17;93266.69;;;10.42;85.71
2000;BME280;1001;48.87406500;9.59633600;2023-03-14T11:39:51;93274.78;;;10.45;86.68
2000;BME280;1001;48.87406500;9.59633600;2023-03-14T11:42:21;93266.50;;;10.33;89.05
2000;BME280;1001;48.87406500;9.59633600;2023-03-14T11:44:50;93278.09;;;10.17;90.91
2000;BME280;1001;48.87406500;9.59633600;2023-03-14T11:47:19;93262.47;;;10.12;92.97
2000;BME280;1001;48.87406500;9.59633600;2023-03-14T11:49:50;93270.63;;;9.95;94.38
2000;BME280;1001;48.87406500;9.59633600;2023-03-14T11:52:23;93281.59;;;9.87;95.25